Search for airport 
image banner adimage banner adimage banner ad
image banner ad

01CL - Swansboro Country

Located in Placerville, United States

ICAO - 01CL, IATA -

Data provided by Airmate  

General information

Coordinates: N38°47'60" W120°44'4"
Elevation is 2594 feet MSL.
Magnetic variation is 16° East
View others Airports in California

Operational data

Special qualification required
Current time UTC:
Current local time:
Weather at : KPVF - Placerville ( 9 km )
METAR: KPVF 221435Z AUTO 00000KT 10SM CLR 19/07 A2996 RMK AO1
View NOTAMs / SUP AIP / TFR affecting this airport [VIEW]
Communications frequencies: [VIEW]

Runways:

RWY identifierQFULength (ft)Width (ft)SurfaceLDA (ft)
09310050OTHER
27310050OTHER

Airport contact information

Address: Placerville United States

Satellite view of 01CL